createdAt,value
2019-06-20T00:00:11.618Z,1001.70
2019-06-20T00:01:11.607Z,1001.66
2019-06-20T00:02:11.611Z,1001.70
2019-06-20T00:03:11.644Z,1001.68
2019-06-20T00:04:11.597Z,1001.70
2019-06-20T00:05:11.571Z,1001.63
2019-06-20T00:06:11.564Z,1001.68
2019-06-20T00:07:11.559Z,1001.70
2019-06-20T00:08:11.569Z,1001.72
2019-06-20T00:09:11.522Z,1001.68
2019-06-20T00:10:11.521Z,1001.71
2019-06-20T00:11:11.510Z,1001.69
2019-06-20T00:12:11.513Z,1001.69
2019-06-20T00:13:11.493Z,1001.70
2019-06-20T00:14:11.493Z,1001.65
2019-06-20T00:15:11.463Z,1001.72
2019-06-20T00:16:11.533Z,1001.66
2019-06-20T00:17:11.454Z,1001.71
2019-06-20T00:18:11.440Z,1001.70
2019-06-20T00:19:11.443Z,1001.66
2019-06-20T00:20:11.433Z,1001.70
2019-06-20T00:21:11.415Z,1001.69
2019-06-20T00:22:11.392Z,1001.70
2019-06-20T00:23:21.446Z,1001.70
2019-06-20T00:24:11.366Z,1001.80
2019-06-20T00:25:11.374Z,1001.73
2019-06-20T00:26:11.355Z,1001.76
2019-06-20T00:27:11.350Z,1001.76
2019-06-20T00:28:11.337Z,1001.74
2019-06-20T00:29:11.307Z,1001.78
2019-06-20T00:30:11.319Z,1001.72
2019-06-20T00:31:11.328Z,1001.76
2019-06-20T00:32:11.290Z,1001.79
2019-06-20T00:33:11.267Z,1001.79
2019-06-20T00:34:11.268Z,1001.78
2019-06-20T00:35:11.260Z,1001.77
2019-06-20T00:36:11.237Z,1001.79
2019-06-20T00:37:11.239Z,1001.75
2019-06-20T00:38:11.229Z,1001.73
2019-06-20T00:39:11.208Z,1001.74
2019-06-20T00:40:11.213Z,1001.79
2019-06-20T00:41:11.178Z,1001.76
2019-06-20T00:42:11.191Z,1001.75
2019-06-20T00:43:17.378Z,1001.77
2019-06-20T00:44:12.167Z,1001.73
2019-06-20T00:45:11.142Z,1001.78
2019-06-20T00:46:11.141Z,1001.77
2019-06-20T00:47:11.133Z,1001.79
2019-06-20T00:48:11.112Z,1001.81
2019-06-20T00:49:11.691Z,1001.78
2019-06-20T00:50:11.105Z,1001.80
2019-06-20T00:51:11.092Z,1001.82
2019-06-20T00:52:11.072Z,1001.80
2019-06-20T00:53:11.073Z,1001.84
2019-06-20T00:54:21.273Z,1001.78
2019-06-20T00:55:11.046Z,1001.75
2019-06-20T00:56:11.041Z,1001.82
2019-06-20T00:57:11.018Z,1001.89
2019-06-20T00:58:11.006Z,1001.81
2019-06-20T00:59:11.009Z,1001.88
2019-06-20T01:00:11.039Z,1001.80
2019-06-20T01:01:10.974Z,1001.87
2019-06-20T01:02:10.977Z,1001.81
2019-06-20T01:03:10.955Z,1001.80
2019-06-20T01:04:10.996Z,1001.83
2019-06-20T01:05:10.938Z,1001.84
2019-06-20T01:06:10.942Z,1001.82
2019-06-20T01:07:10.918Z,1001.89
2019-06-20T01:08:10.895Z,1001.91
2019-06-20T01:09:10.899Z,1001.88
2019-06-20T01:10:10.886Z,1001.91
2019-06-20T01:11:10.866Z,1001.90
2019-06-20T01:12:10.874Z,1001.83
2019-06-20T01:13:10.858Z,1001.84
2019-06-20T01:14:10.840Z,1001.84
2019-06-20T01:15:10.847Z,1001.90
2019-06-20T01:16:10.831Z,1001.83
2019-06-20T01:17:10.798Z,1001.85
2019-06-20T01:18:10.797Z,1001.86
2019-06-20T01:19:10.778Z,1001.92
2019-06-20T01:20:10.768Z,1001.83
2019-06-20T01:21:10.772Z,1001.83
2019-06-20T01:22:10.748Z,1001.90
2019-06-20T01:23:10.738Z,1001.90
2019-06-20T01:24:10.764Z,1001.90
2019-06-20T01:25:21.221Z,1001.91
2019-06-20T01:26:10.714Z,1001.89
2019-06-20T01:27:10.694Z,1001.87
2019-06-20T01:28:10.682Z,1001.88
2019-06-20T01:29:10.672Z,1001.87
2019-06-20T01:30:10.665Z,1001.93
2019-06-20T01:31:10.665Z,1001.86
2019-06-20T01:32:10.688Z,1001.84
2019-06-20T01:33:10.626Z,1001.85
2019-06-20T01:34:10.622Z,1001.86
2019-06-20T01:35:10.626Z,1001.87
2019-06-20T01:36:10.600Z,1001.83
2019-06-20T01:37:10.594Z,1001.91
2019-06-20T01:38:10.586Z,1001.91
2019-06-20T01:39:10.577Z,1001.92
2019-06-20T01:40:10.557Z,1001.92
2019-06-20T01:41:10.564Z,1001.98
2019-06-20T01:42:10.548Z,1001.95
2019-06-20T01:43:10.538Z,1001.96
2019-06-20T01:44:10.529Z,1001.97
2019-06-20T01:45:10.515Z,1001.94
2019-06-20T01:46:10.489Z,1001.94
2019-06-20T01:47:10.536Z,1001.96
2019-06-20T01:48:10.480Z,1001.95
2019-06-20T01:49:10.466Z,1001.94
2019-06-20T01:50:10.456Z,1001.93
2019-06-20T01:51:10.449Z,1001.89
2019-06-20T01:52:10.447Z,1001.90
2019-06-20T01:53:10.483Z,1001.93
2019-06-20T01:54:10.422Z,1001.89
2019-06-20T01:55:10.414Z,1001.92
2019-06-20T01:56:20.790Z,1001.86
2019-06-20T01:57:10.372Z,1001.98
2019-06-20T01:58:10.370Z,1001.87
2019-06-20T01:59:10.392Z,1001.88
2019-06-20T02:00:10.353Z,1001.89
2019-06-20T02:01:10.330Z,1001.88
2019-06-20T02:02:10.375Z,1001.89
2019-06-20T02:03:10.314Z,1001.92
2019-06-20T02:04:10.302Z,1001.91
2019-06-20T02:05:10.312Z,1001.88
2019-06-20T02:06:10.272Z,1001.85
2019-06-20T02:07:10.274Z,1001.90
2019-06-20T02:08:10.252Z,1001.84
2019-06-20T02:09:10.264Z,1001.84
2019-06-20T02:10:10.255Z,1001.81
2019-06-20T02:11:10.223Z,1001.86
2019-06-20T02:12:10.211Z,1001.80
2019-06-20T02:13:10.204Z,1001.84
2019-06-20T02:14:10.206Z,1001.80
2019-06-20T02:15:10.208Z,1001.82
2019-06-20T02:16:10.180Z,1001.79
2019-06-20T02:17:10.177Z,1001.75
2019-06-20T02:18:10.170Z,1001.78
2019-06-20T02:19:10.156Z,1001.76
2019-06-20T02:20:10.174Z,1001.77
2019-06-20T02:21:10.127Z,1001.72
2019-06-20T02:22:10.105Z,1001.72
2019-06-20T02:23:10.098Z,1001.72
2019-06-20T02:24:10.095Z,1001.79
2019-06-20T02:25:10.088Z,1001.81
2019-06-20T02:26:10.136Z,1001.86
2019-06-20T02:27:20.112Z,1001.81
2019-06-20T02:28:10.040Z,1001.95
2019-06-20T02:29:10.041Z,1001.85
2019-06-20T02:30:10.030Z,1001.89
2019-06-20T02:31:10.031Z,1001.94
2019-06-20T02:32:10.012Z,1001.96
2019-06-20T02:33:09.992Z,1001.89
2019-06-20T02:34:09.994Z,1001.94
2019-06-20T02:35:09.971Z,1001.93
2019-06-20T02:36:09.964Z,1001.94
2019-06-20T02:37:10.008Z,1002.00
2019-06-20T02:38:09.987Z,1002.00
2019-06-20T02:39:09.921Z,1002.01
2019-06-20T02:40:09.923Z,1002.02
2019-06-20T02:41:09.916Z,1001.97
2019-06-20T02:42:09.907Z,1001.99
2019-06-20T02:43:09.895Z,1001.95
2019-06-20T02:44:28.299Z,1002.01
2019-06-20T02:45:10.873Z,1001.99
2019-06-20T02:46:09.857Z,1001.98
2019-06-20T02:47:09.844Z,1002.00
2019-06-20T02:48:09.839Z,1002.01
2019-06-20T02:49:09.835Z,1002.04
2019-06-20T02:50:09.918Z,1001.96
2019-06-20T02:51:09.796Z,1001.95
2019-06-20T02:52:09.817Z,1002.01
2019-06-20T02:53:09.786Z,1001.94
2019-06-20T02:54:09.767Z,1001.94
2019-06-20T02:55:09.758Z,1001.97
2019-06-20T02:56:09.759Z,1002.00
2019-06-20T02:57:09.725Z,1001.98
2019-06-20T02:58:20.131Z,1001.92
2019-06-20T02:59:09.711Z,1001.98
2019-06-20T03:00:09.715Z,1001.93
2019-06-20T03:01:09.691Z,1001.95
2019-06-20T03:02:09.691Z,1001.92
2019-06-20T03:03:09.692Z,1002.01
2019-06-20T03:04:09.682Z,1001.97
2019-06-20T03:05:09.659Z,1002.02
2019-06-20T03:06:09.642Z,1002.03
2019-06-20T03:07:09.630Z,1002.05
2019-06-20T03:08:09.633Z,1002.06
2019-06-20T03:09:09.621Z,1002.04
2019-06-20T03:10:09.602Z,1002.03
2019-06-20T03:11:09.582Z,1002.01
2019-06-20T03:12:09.572Z,1002.05
2019-06-20T03:13:09.702Z,1002.05
2019-06-20T03:14:09.589Z,1002.04
2019-06-20T03:15:09.552Z,1002.14
2019-06-20T03:16:09.535Z,1002.09
2019-06-20T03:17:09.524Z,1002.10
2019-06-20T03:18:09.502Z,1002.08
2019-06-20T03:19:09.492Z,1002.07
2019-06-20T03:20:09.491Z,1002.09
2019-06-20T03:21:09.495Z,1002.09
2019-06-20T03:22:09.473Z,1002.05
2019-06-20T03:23:09.457Z,1002.04
2019-06-20T03:24:09.455Z,1002.03
2019-06-20T03:25:09.491Z,1001.96
2019-06-20T03:26:09.474Z,1001.92
2019-06-20T03:27:09.417Z,1001.93
2019-06-20T03:28:09.406Z,1001.95
2019-06-20T03:29:19.904Z,1001.95
2019-06-20T03:30:09.398Z,1001.91
2019-06-20T03:31:09.378Z,1001.93
2019-06-20T03:32:09.378Z,1001.91
2019-06-20T03:33:09.350Z,1001.91
2019-06-20T03:34:09.367Z,1001.90
2019-06-20T03:35:09.333Z,1001.99
2019-06-20T03:36:09.333Z,1001.94
2019-06-20T03:37:09.307Z,1002.00
2019-06-20T03:38:09.328Z,1001.94
2019-06-20T03:39:09.300Z,1001.98
2019-06-20T03:40:09.278Z,1001.92
2019-06-20T03:41:09.278Z,1001.88
2019-06-20T03:42:09.270Z,1001.91
2019-06-20T03:43:09.238Z,1001.96
2019-06-20T03:44:09.266Z,1001.96
2019-06-20T03:45:09.233Z,1001.94
2019-06-20T03:46:09.217Z,1001.96
2019-06-20T03:47:09.222Z,1002.00
2019-06-20T03:48:09.211Z,1001.92
2019-06-20T03:49:09.181Z,1001.98
2019-06-20T03:50:09.171Z,1001.94
2019-06-20T03:51:09.159Z,1002.00
2019-06-20T03:52:09.151Z,1001.99
2019-06-20T03:53:09.152Z,1002.00
2019-06-20T03:54:09.131Z,1001.98
2019-06-20T03:55:09.127Z,1001.94
2019-06-20T03:56:09.103Z,1001.98
2019-06-20T03:57:09.102Z,1001.97
2019-06-20T03:58:09.114Z,1001.97
2019-06-20T03:59:09.062Z,1002.02
2019-06-20T04:00:21.414Z,1002.01
2019-06-20T04:01:09.044Z,1001.96
2019-06-20T04:02:09.035Z,1001.95
2019-06-20T04:03:09.036Z,1001.98
2019-06-20T04:04:09.028Z,1001.95
2019-06-20T04:05:09.019Z,1001.99
2019-06-20T04:06:09.018Z,1001.95
2019-06-20T04:07:08.976Z,1001.95
2019-06-20T04:08:08.976Z,1001.92
2019-06-20T04:09:08.999Z,1001.98
2019-06-20T04:10:08.947Z,1002.01
2019-06-20T04:11:08.948Z,1002.03
2019-06-20T04:12:08.929Z,1001.98
2019-06-20T04:13:08.917Z,1002.04
2019-06-20T04:14:08.919Z,1002.05
2019-06-20T04:15:18.589Z,1001.99
2019-06-20T04:16:09.899Z,1002.04
2019-06-20T04:17:08.891Z,1001.95
2019-06-20T04:18:08.870Z,1001.98
2019-06-20T04:19:08.859Z,1002.05
2019-06-20T04:20:08.852Z,1001.95
2019-06-20T04:21:08.838Z,1001.98
2019-06-20T04:22:08.842Z,1002.01
2019-06-20T04:23:08.821Z,1001.98
2019-06-20T04:24:08.809Z,1001.94
2019-06-20T04:25:08.810Z,1001.99
2019-06-20T04:26:08.821Z,1001.97
2019-06-20T04:27:08.770Z,1002.00
2019-06-20T04:28:08.773Z,1002.00
2019-06-20T04:29:08.752Z,1001.94
2019-06-20T04:30:08.791Z,1001.92
2019-06-20T04:31:19.687Z,1001.97
2019-06-20T04:32:08.724Z,1002.01
2019-06-20T04:33:08.716Z,1002.00
2019-06-20T04:34:08.695Z,1002.01
2019-06-20T04:35:08.686Z,1001.94
2019-06-20T04:36:08.685Z,1002.00
2019-06-20T04:37:08.665Z,1002.00
2019-06-20T04:38:08.667Z,1002.01
2019-06-20T04:39:18.698Z,1002.04
2019-06-20T04:40:09.638Z,1002.01
2019-06-20T04:41:08.640Z,1002.00
2019-06-20T04:42:08.629Z,1002.00
2019-06-20T04:43:08.619Z,1001.98
2019-06-20T04:44:08.587Z,1002.06
2019-06-20T04:45:08.591Z,1002.06
2019-06-20T04:46:08.580Z,1001.97
2019-06-20T04:47:08.567Z,1001.94
2019-06-20T04:48:08.589Z,1001.94
2019-06-20T04:49:08.540Z,1002.00
2019-06-20T04:50:08.569Z,1001.96
2019-06-20T04:51:08.518Z,1001.93
2019-06-20T04:52:08.499Z,1001.96
2019-06-20T04:53:08.489Z,1001.97
2019-06-20T04:54:08.503Z,1001.98
2019-06-20T04:55:08.469Z,1002.03
2019-06-20T04:56:08.482Z,1002.03
2019-06-20T04:57:08.459Z,1002.05
2019-06-20T04:58:08.437Z,1002.05
2019-06-20T04:59:08.443Z,1002.12
2019-06-20T05:00:08.445Z,1002.06
2019-06-20T05:01:08.410Z,1002.00
2019-06-20T05:02:18.526Z,1002.09
2019-06-20T05:03:08.404Z,1002.01
2019-06-20T05:04:08.404Z,1001.99
2019-06-20T05:05:08.368Z,1002.03
2019-06-20T05:06:08.355Z,1002.02
2019-06-20T05:07:08.356Z,1002.02
2019-06-20T05:08:08.336Z,1002.01
2019-06-20T05:09:08.365Z,1002.07
2019-06-20T05:10:08.342Z,1002.09
2019-06-20T05:11:08.306Z,1002.13
2019-06-20T05:12:08.286Z,1002.02
2019-06-20T05:13:08.276Z,1002.09
2019-06-20T05:14:08.279Z,1002.09
2019-06-20T05:15:08.587Z,1002.03
2019-06-20T05:16:08.276Z,1002.05
2019-06-20T05:17:08.237Z,1002.03
2019-06-20T05:18:08.228Z,1002.04
2019-06-20T05:19:08.285Z,1002.01
2019-06-20T05:20:08.220Z,1002.07
2019-06-20T05:21:08.207Z,1002.08
2019-06-20T05:22:08.181Z,1002.08
2019-06-20T05:23:08.227Z,1002.10
2019-06-20T05:24:08.172Z,1002.07
2019-06-20T05:25:08.161Z,1002.07
2019-06-20T05:26:08.171Z,1002.05
2019-06-20T05:27:08.129Z,1002.06
2019-06-20T05:28:08.129Z,1002.06
2019-06-20T05:29:08.112Z,1002.04
2019-06-20T05:30:08.103Z,1002.03
2019-06-20T05:31:08.170Z,1002.08
2019-06-20T05:32:08.082Z,1002.02
2019-06-20T05:33:18.155Z,1001.99
2019-06-20T05:34:08.068Z,1001.97
2019-06-20T05:35:08.059Z,1001.99
2019-06-20T05:36:08.051Z,1001.97
2019-06-20T05:37:08.047Z,1001.94
2019-06-20T05:38:08.023Z,1002.02
2019-06-20T05:39:08.017Z,1002.00
2019-06-20T05:40:08.009Z,1001.93
2019-06-20T05:41:07.976Z,1001.94
2019-06-20T05:42:07.988Z,1001.94
2019-06-20T05:43:07.975Z,1001.95
2019-06-20T05:44:07.955Z,1001.90
2019-06-20T05:45:07.960Z,1001.92
2019-06-20T05:46:10.607Z,1001.95
2019-06-20T05:47:12.217Z,1001.93
2019-06-20T05:48:08.929Z,1001.98
2019-06-20T05:49:07.898Z,1001.94
2019-06-20T05:50:07.901Z,1001.90
2019-06-20T05:51:07.879Z,1001.94
2019-06-20T05:52:07.870Z,1001.98
2019-06-20T05:53:07.858Z,1001.99
2019-06-20T05:54:07.862Z,1001.98
2019-06-20T05:55:07.855Z,1002.01
2019-06-20T05:56:08.691Z,1002.01
2019-06-20T05:57:07.824Z,1001.98
2019-06-20T05:58:07.819Z,1002.00
2019-06-20T05:59:08.260Z,1002.00
2019-06-20T06:00:08.402Z,1001.95
2019-06-20T06:01:07.774Z,1001.99
2019-06-20T06:02:07.769Z,1002.00
2019-06-20T06:03:07.761Z,1002.01
2019-06-20T06:04:18.354Z,1001.99
2019-06-20T06:05:07.732Z,1001.96
2019-06-20T06:06:07.722Z,1002.07
2019-06-20T06:07:07.724Z,1002.05
2019-06-20T06:08:07.702Z,1001.94
2019-06-20T06:09:07.701Z,1001.88
2019-06-20T06:10:07.729Z,1001.87
2019-06-20T06:11:07.676Z,1001.92
2019-06-20T06:12:07.676Z,1001.91
2019-06-20T06:13:07.670Z,1001.78
2019-06-20T06:14:07.646Z,1001.80
2019-06-20T06:15:07.623Z,1001.77
2019-06-20T06:16:07.637Z,1001.80
2019-06-20T06:17:07.670Z,1001.77
2019-06-20T06:18:07.594Z,1001.80
2019-06-20T06:19:07.594Z,1001.76
2019-06-20T06:20:07.585Z,1001.74
2019-06-20T06:21:07.576Z,1001.82
2019-06-20T06:22:07.573Z,1001.74
2019-06-20T06:23:07.544Z,1001.75
2019-06-20T06:24:07.536Z,1001.79
2019-06-20T06:25:07.523Z,1001.78
2019-06-20T06:26:07.538Z,1001.82
2019-06-20T06:27:07.517Z,1001.77
2019-06-20T06:28:07.507Z,1001.82
2019-06-20T06:29:07.499Z,1001.85
2019-06-20T06:30:07.469Z,1001.83
2019-06-20T06:31:07.477Z,1001.92
2019-06-20T06:32:07.447Z,1001.84
2019-06-20T06:33:07.452Z,1001.80
2019-06-20T06:34:07.437Z,1001.90
2019-06-20T06:35:19.424Z,1001.94
2019-06-20T06:36:07.479Z,1001.89
2019-06-20T06:37:07.427Z,1001.86
2019-06-20T06:38:07.407Z,1001.87
2019-06-20T06:39:07.396Z,1001.87
2019-06-20T06:40:07.374Z,1001.91
2019-06-20T06:41:07.367Z,1001.91
2019-06-20T06:42:07.615Z,1001.92
2019-06-20T06:43:07.327Z,1001.95
2019-06-20T06:44:08.447Z,1001.88
2019-06-20T06:45:07.330Z,1001.92
2019-06-20T06:46:07.323Z,1001.89
2019-06-20T06:47:07.359Z,1001.96
2019-06-20T06:48:07.302Z,1001.88
2019-06-20T06:49:07.270Z,1001.86
2019-06-20T06:50:07.267Z,1001.88
2019-06-20T06:51:07.248Z,1001.93
2019-06-20T06:52:07.298Z,1001.89
2019-06-20T06:53:07.285Z,1001.90
2019-06-20T06:54:07.230Z,1001.91
2019-06-20T06:55:07.221Z,1001.99
2019-06-20T06:56:07.206Z,1001.88
2019-06-20T06:57:07.205Z,1001.90
2019-06-20T06:58:07.182Z,1001.91
2019-06-20T06:59:07.201Z,1001.92
2019-06-20T07:00:07.162Z,1001.94
2019-06-20T07:01:10.164Z,1001.95
2019-06-20T07:02:07.130Z,1001.90
2019-06-20T07:03:07.130Z,1001.90
2019-06-20T07:04:07.114Z,1001.91
2019-06-20T07:05:07.103Z,1001.95
2019-06-20T07:06:17.493Z,1001.81
2019-06-20T07:07:07.088Z,1001.86
2019-06-20T07:08:07.074Z,1001.85
2019-06-20T07:09:07.065Z,1001.88
2019-06-20T07:10:07.051Z,1001.84
2019-06-20T07:11:07.047Z,1001.88
2019-06-20T07:12:07.026Z,1001.93
2019-06-20T07:13:07.016Z,1001.93
2019-06-20T07:14:07.049Z,1001.87
2019-06-20T07:15:06.998Z,1001.91
2019-06-20T07:16:07.003Z,1001.90
2019-06-20T07:17:06.979Z,1001.87
2019-06-20T07:18:06.967Z,1001.89
2019-06-20T07:19:06.948Z,1001.92
2019-06-20T07:20:06.972Z,1001.89
2019-06-20T07:21:06.932Z,1001.82
2019-06-20T07:22:06.921Z,1001.82
2019-06-20T07:23:06.910Z,1001.82
2019-06-20T07:24:06.899Z,1001.85
2019-06-20T07:25:06.940Z,1001.86
2019-06-20T07:26:06.910Z,1001.86
2019-06-20T07:27:06.877Z,1001.90
2019-06-20T07:28:06.861Z,1001.84
2019-06-20T07:29:06.867Z,1001.88
2019-06-20T07:30:06.897Z,1001.93
2019-06-20T07:31:06.842Z,1001.87
2019-06-20T07:32:06.843Z,1001.92
2019-06-20T07:33:06.802Z,1001.90
2019-06-20T07:34:06.804Z,1001.87
2019-06-20T07:35:06.780Z,1001.87
2019-06-20T07:36:06.806Z,1001.84
2019-06-20T07:37:17.426Z,1001.88
2019-06-20T07:38:06.838Z,1001.90
2019-06-20T07:39:06.734Z,1001.91
2019-06-20T07:40:06.728Z,1001.86
2019-06-20T07:41:06.715Z,1001.89
2019-06-20T07:42:06.718Z,1001.87
2019-06-20T07:43:06.706Z,1001.87
2019-06-20T07:44:06.709Z,1001.81
2019-06-20T07:45:06.688Z,1001.82
2019-06-20T07:46:06.666Z,1001.88
2019-06-20T07:47:17.182Z,1001.86
2019-06-20T07:48:07.653Z,1001.86
2019-06-20T07:49:06.636Z,1001.79
2019-06-20T07:50:06.617Z,1001.84
2019-06-20T07:51:06.641Z,1001.81
2019-06-20T07:52:06.728Z,1001.77
2019-06-20T07:53:06.616Z,1001.83
2019-06-20T07:54:06.579Z,1001.83
2019-06-20T07:55:06.578Z,1001.81
2019-06-20T07:56:09.437Z,1001.89
2019-06-20T07:57:06.571Z,1001.85
2019-06-20T07:58:06.582Z,1001.87
2019-06-20T07:59:06.536Z,1001.87
2019-06-20T08:00:06.520Z,1001.83
2019-06-20T08:01:06.509Z,1001.83
2019-06-20T08:02:06.513Z,1001.85
2019-06-20T08:03:06.492Z,1001.85
2019-06-20T08:04:06.541Z,1001.82
2019-06-20T08:05:06.478Z,1001.83
2019-06-20T08:06:06.464Z,1001.90
2019-06-20T08:07:06.444Z,1001.84
2019-06-20T08:08:17.139Z,1001.86
2019-06-20T08:09:06.418Z,1001.86
2019-06-20T08:10:06.463Z,1001.80
2019-06-20T08:11:06.413Z,1001.85
2019-06-20T08:12:06.386Z,1001.79
2019-06-20T08:13:06.389Z,1001.81
2019-06-20T08:14:06.359Z,1001.82
2019-06-20T08:15:15.178Z,1001.77
2019-06-20T08:16:07.394Z,1001.83
2019-06-20T08:17:06.341Z,1001.87
2019-06-20T08:18:06.320Z,1001.83
2019-06-20T08:19:06.331Z,1001.86
2019-06-20T08:20:06.322Z,1001.86
2019-06-20T08:21:06.300Z,1001.84
2019-06-20T08:22:06.354Z,1001.85
2019-06-20T08:23:06.270Z,1001.80
2019-06-20T08:24:06.258Z,1001.81
2019-06-20T08:25:06.251Z,1001.84
2019-06-20T08:26:06.955Z,1001.73
2019-06-20T08:27:06.755Z,1001.80
2019-06-20T08:28:06.645Z,1001.70
2019-06-20T08:29:18.729Z,1001.77
2019-06-20T08:30:07.319Z,1001.85
2019-06-20T08:31:06.796Z,1001.82
2019-06-20T08:32:06.634Z,1001.79
2019-06-20T08:33:11.781Z,1001.79
2019-06-20T08:34:07.160Z,1001.79
2019-06-20T08:35:06.516Z,1001.74
2019-06-20T08:36:06.662Z,1001.77
2019-06-20T08:37:06.439Z,1001.78
2019-06-20T08:38:07.589Z,1001.71
2019-06-20T08:39:16.739Z,1001.76
2019-06-20T08:40:06.566Z,1001.78
2019-06-20T08:41:06.595Z,1001.75
2019-06-20T08:42:06.404Z,1001.77
2019-06-20T08:43:06.380Z,1001.74
2019-06-20T08:44:06.178Z,1001.76
2019-06-20T08:45:06.155Z,1001.75
2019-06-20T08:46:10.050Z,1001.71
2019-06-20T08:47:06.042Z,1001.67
2019-06-20T08:48:07.272Z,1001.73
2019-06-20T08:49:06.011Z,1001.71
2019-06-20T08:50:06.134Z,1001.74
2019-06-20T08:51:06.587Z,1001.72
2019-06-20T08:52:05.972Z,1001.79
2019-06-20T08:53:06.024Z,1001.71
2019-06-20T08:54:05.965Z,1001.75
2019-06-20T08:55:05.985Z,1001.69
2019-06-20T08:56:05.923Z,1001.72
2019-06-20T08:57:05.995Z,1001.74
2019-06-20T08:58:05.920Z,1001.76
2019-06-20T08:59:05.894Z,1001.71
2019-06-20T09:03:05.855Z,1001.74
2019-06-20T09:04:05.839Z,1001.74
2019-06-20T09:05:05.856Z,1001.75
2019-06-20T09:06:05.845Z,1001.76
2019-06-20T09:07:05.821Z,1001.73
2019-06-20T09:08:05.789Z,1001.71
2019-06-20T09:09:05.798Z,1001.70
2019-06-20T09:10:16.592Z,1001.65
2019-06-20T09:11:05.773Z,1001.72
2019-06-20T09:12:05.751Z,1001.68
2019-06-20T09:13:05.740Z,1001.68
2019-06-20T09:14:05.746Z,1001.70
2019-06-20T09:15:05.723Z,1001.71
2019-06-20T09:16:05.731Z,1001.75
2019-06-20T09:17:05.706Z,1001.74
2019-06-20T09:18:05.695Z,1001.70
2019-06-20T09:19:05.672Z,1001.70
2019-06-20T09:20:05.675Z,1001.67
2019-06-20T09:21:05.675Z,1001.71
2019-06-20T09:22:05.644Z,1001.73
2019-06-20T09:23:05.642Z,1001.72
2019-06-20T09:24:05.632Z,1001.68
2019-06-20T09:25:05.615Z,1001.73
2019-06-20T09:26:05.656Z,1001.78
2019-06-20T09:27:05.593Z,1001.72
2019-06-20T09:28:05.583Z,1001.82
2019-06-20T09:29:05.588Z,1001.76
2019-06-20T09:30:05.577Z,1001.72
2019-06-20T09:31:05.558Z,1001.74
2019-06-20T09:32:05.556Z,1001.68
2019-06-20T09:33:05.526Z,1001.66
2019-06-20T09:34:05.577Z,1001.73
2019-06-20T09:35:05.516Z,1001.72
2019-06-20T09:36:05.553Z,1001.68
2019-06-20T09:37:05.566Z,1001.66
2019-06-20T09:38:05.479Z,1001.67
2019-06-20T09:39:05.480Z,1001.62
2019-06-20T09:40:05.458Z,1001.69
2019-06-20T09:41:15.737Z,1001.68
2019-06-20T09:42:05.444Z,1001.76
2019-06-20T09:43:05.445Z,1001.73
2019-06-20T09:44:05.431Z,1001.73
2019-06-20T09:45:05.409Z,1001.76
2019-06-20T09:46:05.396Z,1001.70
2019-06-20T09:47:05.397Z,1001.71
2019-06-20T09:48:05.385Z,1001.71
2019-06-20T09:49:05.368Z,1001.63
2019-06-20T09:50:05.368Z,1001.67
2019-06-20T09:51:05.346Z,1001.78
2019-06-20T09:52:05.374Z,1001.75
2019-06-20T09:53:05.346Z,1001.72
2019-06-20T09:54:05.324Z,1001.72
2019-06-20T09:55:05.298Z,1001.71
2019-06-20T09:56:05.298Z,1001.69
2019-06-20T09:57:05.279Z,1001.72
2019-06-20T09:58:05.278Z,1001.69
2019-06-20T09:59:05.268Z,1001.67
2019-06-20T10:00:10.350Z,1001.73
2019-06-20T10:01:06.242Z,1001.78
2019-06-20T10:02:05.231Z,1001.76
2019-06-20T10:03:05.226Z,1001.75
2019-06-20T10:04:05.209Z,1001.73
2019-06-20T10:05:05.204Z,1001.72
2019-06-20T10:06:13.188Z,1001.68
2019-06-20T10:07:06.194Z,1001.70
2019-06-20T10:08:05.173Z,1001.73
2019-06-20T10:09:05.175Z,1001.75
2019-06-20T10:10:05.163Z,1001.72
2019-06-20T10:11:05.143Z,1001.69
2019-06-20T10:12:15.837Z,1001.71
2019-06-20T10:13:05.128Z,1001.74
2019-06-20T10:14:05.109Z,1001.71
2019-06-20T10:15:05.106Z,1001.71
2019-06-20T10:16:05.106Z,1001.67
2019-06-20T10:17:05.067Z,1001.70
2019-06-20T10:18:05.061Z,1001.68
2019-06-20T10:19:05.051Z,1001.70
2019-06-20T10:20:05.069Z,1001.63
2019-06-20T10:21:05.021Z,1001.66
2019-06-20T10:22:05.029Z,1001.56
2019-06-20T10:23:05.009Z,1001.59
2019-06-20T10:24:05.015Z,1001.54
2019-06-20T10:25:04.980Z,1001.54
2019-06-20T10:26:05.021Z,1001.62
2019-06-20T10:27:04.952Z,1001.60
2019-06-20T10:28:04.963Z,1001.63
2019-06-20T10:29:04.945Z,1001.58
2019-06-20T10:30:13.837Z,1001.61
2019-06-20T10:31:05.945Z,1001.61
2019-06-20T10:32:04.922Z,1001.67
2019-06-20T10:33:04.905Z,1001.58
2019-06-20T10:34:04.896Z,1001.70
2019-06-20T10:35:04.882Z,1001.65
2019-06-20T10:36:04.872Z,1001.61
2019-06-20T10:37:04.906Z,1001.61
2019-06-20T10:38:04.844Z,1001.67
2019-06-20T10:39:04.835Z,1001.65
2019-06-20T10:40:04.841Z,1001.68
2019-06-20T10:41:04.827Z,1001.60
2019-06-20T10:42:04.798Z,1001.59
2019-06-20T10:43:15.568Z,1001.63
2019-06-20T10:44:04.792Z,1001.59
2019-06-20T10:45:04.790Z,1001.56
2019-06-20T10:46:04.760Z,1001.55
2019-06-20T10:47:04.772Z,1001.61
2019-06-20T10:48:04.743Z,1001.55
2019-06-20T10:49:04.744Z,1001.54
2019-06-20T10:50:04.712Z,1001.52
2019-06-20T10:51:04.711Z,1001.59
2019-06-20T10:52:04.715Z,1001.54
2019-06-20T10:53:04.707Z,1001.46
2019-06-20T10:54:04.692Z,1001.47
2019-06-20T10:55:04.672Z,1001.50
2019-06-20T10:56:04.664Z,1001.47
2019-06-20T10:57:04.654Z,1001.45
2019-06-20T10:58:04.670Z,1001.45
2019-06-20T10:59:04.638Z,1001.45
2019-06-20T11:00:04.641Z,1001.38
2019-06-20T11:01:04.616Z,1001.39
2019-06-20T11:02:07.248Z,1001.44
2019-06-20T11:03:04.595Z,1001.47
2019-06-20T11:04:04.598Z,1001.39
2019-06-20T11:05:04.577Z,1001.47
2019-06-20T11:06:05.417Z,1001.37
2019-06-20T11:07:04.550Z,1001.39
2019-06-20T11:08:04.587Z,1001.37
2019-06-20T11:09:04.540Z,1001.44
2019-06-20T11:10:04.518Z,1001.40
2019-06-20T11:11:04.516Z,1001.31
2019-06-20T11:12:04.505Z,1001.42
2019-06-20T11:13:04.500Z,1001.38
2019-06-20T11:14:16.785Z,1001.38
2019-06-20T11:15:04.475Z,1001.39
2019-06-20T11:16:04.465Z,1001.35
2019-06-20T11:17:04.455Z,1001.38
2019-06-20T11:18:04.437Z,1001.35
2019-06-20T11:19:04.448Z,1001.39
2019-06-20T11:20:04.425Z,1001.30
2019-06-20T11:21:04.406Z,1001.31
2019-06-20T11:22:04.401Z,1001.33
2019-06-20T11:23:04.395Z,1001.32
2019-06-20T11:24:04.425Z,1001.39
2019-06-20T11:25:04.370Z,1001.39
2019-06-20T11:26:04.356Z,1001.34
2019-06-20T11:27:04.337Z,1001.32
2019-06-20T11:28:04.342Z,1001.31
2019-06-20T11:29:04.378Z,1001.40
2019-06-20T11:30:04.318Z,1001.34
2019-06-20T11:31:04.311Z,1001.33
2019-06-20T11:32:04.288Z,1001.30
2019-06-20T11:33:04.289Z,1001.27
2019-06-20T11:34:04.282Z,1001.34
2019-06-20T11:35:04.282Z,1001.36
2019-06-20T11:36:04.271Z,1001.33
2019-06-20T11:37:04.247Z,1001.31
2019-06-20T11:38:04.256Z,1001.29
2019-06-20T11:39:04.228Z,1001.30
2019-06-20T11:40:04.224Z,1001.26
2019-06-20T11:41:04.231Z,1001.30
2019-06-20T11:42:04.191Z,1001.28
2019-06-20T11:43:04.194Z,1001.26
2019-06-20T11:44:04.182Z,1001.30
2019-06-20T11:45:14.327Z,1001.20
2019-06-20T11:46:04.147Z,1001.34
2019-06-20T11:47:04.159Z,1001.28
2019-06-20T11:48:04.139Z,1001.29
2019-06-20T11:49:04.119Z,1001.30
2019-06-20T11:50:04.134Z,1001.28
2019-06-20T11:51:04.108Z,1001.37
2019-06-20T11:52:04.107Z,1001.34
2019-06-20T11:53:04.090Z,1001.31
2019-06-20T11:54:04.081Z,1001.36
2019-06-20T11:55:04.069Z,1001.35
2019-06-20T11:56:04.049Z,1001.30
2019-06-20T11:57:04.061Z,1001.24
2019-06-20T11:58:04.050Z,1001.29
2019-06-20T11:59:04.010Z,1001.22
2019-06-20T12:00:04.000Z,1001.32
2019-06-20T12:01:04.323Z,1001.34
2019-06-20T12:02:03.982Z,1001.32
2019-06-20T12:03:03.994Z,1001.40
2019-06-20T12:04:03.974Z,1001.37
2019-06-20T12:05:03.942Z,1001.47
2019-06-20T12:06:03.940Z,1001.33
2019-06-20T12:07:03.935Z,1001.35
2019-06-20T12:08:03.922Z,1001.35